sensor_id;sensor_type;location;lat;lon;timestamp;pressure;altitude;pressure_sealevel;temperature;humidity
2397;BME280;1209;48.410;9.054;2022-08-03T00:00:54;96333.88;;;20.78;100.00
2397;BME280;1209;48.410;9.054;2022-08-03T00:03:20;96330.66;;;20.75;100.00
2397;BME280;1209;48.410;9.054;2022-08-03T00:05:46;96326.06;;;20.71;100.00
2397;BME280;1209;48.410;9.054;2022-08-03T00:08:11;96339.38;;;20.59;100.00
2397;BME280;1209;48.410;9.054;2022-08-03T00:10:37;96339.28;;;20.54;100.00
2397;BME280;1209;48.410;9.054;2022-08-03T00:13:02;96334.13;;;20.48;100.00
2397;BME280;1209;48.410;9.054;2022-08-03T00:15:29;96335.84;;;20.42;100.00
2397;BME280;1209;48.410;9.054;2022-08-03T00:17:54;96333.88;;;20.37;100.00
2397;BME280;1209;48.410;9.054;2022-08-03T00:20:20;96326.84;;;20.31;100.00
2397;BME280;1209;48.410;9.054;2022-08-03T00:22:45;96326.38;;;20.34;100.00
2397;BME280;1209;48.410;9.054;2022-08-03T00:25:11;96327.63;;;20.32;100.00
2397;BME280;1209;48.410;9.054;2022-08-03T00:27:36;96330.78;;;20.17;100.00
2397;BME280;1209;48.410;9.054;2022-08-03T00:30:02;96330.88;;;20.22;100.00
2397;BME280;1209;48.410;9.054;2022-08-03T00:32:28;96333.44;;;20.17;100.00
2397;BME280;1209;48.410;9.054;2022-08-03T00:34:53;96327.91;;;20.07;100.00
2397;BME280;1209;48.410;9.054;2022-08-03T00:37:18;96326.53;;;20.04;100.00
2397;BME280;1209;48.410;9.054;2022-08-03T00:39:44;96331.16;;;19.97;100.00
2397;BME280;1209;48.410;9.054;2022-08-03T00:42:11;96332.88;;;20.03;100.00
2397;BME280;1209;48.410;9.054;2022-08-03T00:44:41;96334.97;;;19.90;100.00
2397;BME280;1209;48.410;9.054;2022-08-03T00:47:07;96323.09;;;20.04;100.00
2397;BME280;1209;48.410;9.054;2022-08-03T00:49:35;96324.72;;;19.93;100.00
2397;BME280;1209;48.410;9.054;2022-08-03T00:52:01;96328.28;;;19.64;100.00
2397;BME280;1209;48.410;9.054;2022-08-03T00:54:27;96333.00;;;19.85;100.00
2397;BME280;1209;48.410;9.054;2022-08-03T00:56:52;96317.09;;;19.85;100.00
2397;BME280;1209;48.410;9.054;2022-08-03T00:59:17;96318.47;;;19.99;100.00
2397;BME280;1209;48.410;9.054;2022-08-03T01:01:43;96320.78;;;19.96;100.00
2397;BME280;1209;48.410;9.054;2022-08-03T01:04:09;96313.66;;;19.96;100.00
2397;BME280;1209;48.410;9.054;2022-08-03T01:07:02;96321.25;;;19.69;100.00
2397;BME280;1209;48.410;9.054;2022-08-03T01:09:55;96320.91;;;19.66;100.00
2397;BME280;1209;48.410;9.054;2022-08-03T01:12:51;96323.78;;;19.76;100.00
2397;BME280;1209;48.410;9.054;2022-08-03T01:15:37;96317.66;;;19.75;100.00
2397;BME280;1209;48.410;9.054;2022-08-03T01:18:13;96311.91;;;19.78;100.00
2397;BME280;1209;48.410;9.054;2022-08-03T01:20:44;96314.22;;;19.75;100.00
2397;BME280;1209;48.410;9.054;2022-08-03T01:26:26;96309.25;;;19.67;100.00
2397;BME280;1209;48.410;9.054;2022-08-03T01:32:04;96294.06;;;19.74;100.00
2397;BME280;1209;48.410;9.054;2022-08-03T01:34:35;96306.03;;;19.65;100.00
2397;BME280;1209;48.410;9.054;2022-08-03T01:37:08;96293.75;;;19.29;100.00
2397;BME280;1209;48.410;9.054;2022-08-03T01:39:36;96296.66;;;19.39;100.00
2397;BME280;1209;48.410;9.054;2022-08-03T01:42:03;96301.75;;;19.52;100.00
2397;BME280;1209;48.410;9.054;2022-08-03T01:44:34;96292.09;;;19.58;100.00
2397;BME280;1209;48.410;9.054;2022-08-03T01:47:01;96299.31;;;19.50;100.00
2397;BME280;1209;48.410;9.054;2022-08-03T01:49:34;96287.81;;;19.45;100.00
2397;BME280;1209;48.410;9.054;2022-08-03T01:52:02;96302.41;;;19.36;100.00
2397;BME280;1209;48.410;9.054;2022-08-03T01:54:28;96290.88;;;19.18;100.00
2397;BME280;1209;48.410;9.054;2022-08-03T01:56:56;96293.63;;;19.24;100.00
2397;BME280;1209;48.410;9.054;2022-08-03T01:59:24;96292.72;;;19.18;100.00
2397;BME280;1209;48.410;9.054;2022-08-03T02:01:51;96290.53;;;19.15;100.00
2397;BME280;1209;48.410;9.054;2022-08-03T02:04:18;96287.28;;;19.13;100.00
2397;BME280;1209;48.410;9.054;2022-08-03T02:06:45;96295.00;;;19.14;100.00
2397;BME280;1209;48.410;9.054;2022-08-03T02:09:13;96287.41;;;19.06;100.00
2397;BME280;1209;48.410;9.054;2022-08-03T02:11:39;96290.84;;;19.07;100.00
2397;BME280;1209;48.410;9.054;2022-08-03T02:14:06;96292.69;;;19.06;100.00
2397;BME280;1209;48.410;9.054;2022-08-03T02:16:33;96293.28;;;19.08;100.00
2397;BME280;1209;48.410;9.054;2022-08-03T02:19:00;96290.16;;;19.00;100.00
2397;BME280;1209;48.410;9.054;2022-08-03T02:21:28;96293.72;;;18.94;100.00
2397;BME280;1209;48.410;9.054;2022-08-03T02:23:56;96282.38;;;18.86;100.00
2397;BME280;1209;48.410;9.054;2022-08-03T02:26:23;96283.19;;;18.87;100.00
2397;BME280;1209;48.410;9.054;2022-08-03T02:28:51;96286.66;;;18.87;100.00
2397;BME280;1209;48.410;9.054;2022-08-03T02:31:23;96285.03;;;18.86;100.00
2397;BME280;1209;48.410;9.054;2022-08-03T02:34:00;96288.13;;;18.83;100.00
2397;BME280;1209;48.410;9.054;2022-08-03T02:36:31;96289.03;;;18.77;100.00
2397;BME280;1209;48.410;9.054;2022-08-03T02:38:58;96282.22;;;18.70;100.00
2397;BME280;1209;48.410;9.054;2022-08-03T02:41:35;96284.28;;;18.68;100.00
2397;BME280;1209;48.410;9.054;2022-08-03T02:44:03;96285.53;;;18.65;100.00
2397;BME280;1209;48.410;9.054;2022-08-03T02:46:33;96281.41;;;18.69;100.00
2397;BME280;1209;48.410;9.054;2022-08-03T02:49:01;96280.69;;;18.62;100.00
2397;BME280;1209;48.410;9.054;2022-08-03T02:51:29;96280.47;;;18.64;100.00
2397;BME280;1209;48.410;9.054;2022-08-03T02:53:56;96280.31;;;18.59;100.00
2397;BME280;1209;48.410;9.054;2022-08-03T02:56:26;96284.66;;;18.53;100.00
2397;BME280;1209;48.410;9.054;2022-08-03T02:58:52;96285.97;;;18.44;100.00
2397;BME280;1209;48.410;9.054;2022-08-03T03:01:21;96282.53;;;18.43;100.00
2397;BME280;1209;48.410;9.054;2022-08-03T03:03:48;96278.50;;;18.41;100.00
2397;BME280;1209;48.410;9.054;2022-08-03T03:06:16;96274.81;;;18.42;100.00
2397;BME280;1209;48.410;9.054;2022-08-03T03:08:42;96273.78;;;18.43;100.00
2397;BME280;1209;48.410;9.054;2022-08-03T03:11:09;96274.00;;;18.41;100.00
2397;BME280;1209;48.410;9.054;2022-08-03T03:13:35;96278.28;;;18.42;100.00
2397;BME280;1209;48.410;9.054;2022-08-03T03:16:03;96273.22;;;18.41;100.00
2397;BME280;1209;48.410;9.054;2022-08-03T03:18:32;96275.25;;;18.39;100.00
2397;BME280;1209;48.410;9.054;2022-08-03T03:20:59;96268.81;;;18.35;100.00
2397;BME280;1209;48.410;9.054;2022-08-03T03:23:26;96280.16;;;18.23;100.00
2397;BME280;1209;48.410;9.054;2022-08-03T03:25:54;96268.75;;;18.23;100.00
2397;BME280;1209;48.410;9.054;2022-08-03T03:28:22;96272.66;;;18.20;100.00
2397;BME280;1209;48.410;9.054;2022-08-03T03:30:48;96276.03;;;18.09;100.00
2397;BME280;1209;48.410;9.054;2022-08-03T03:33:13;96273.47;;;18.03;100.00
2397;BME280;1209;48.410;9.054;2022-08-03T03:35:40;96277.88;;;18.09;100.00
2397;BME280;1209;48.410;9.054;2022-08-03T03:38:06;96277.75;;;18.04;100.00
2397;BME280;1209;48.410;9.054;2022-08-03T03:40:33;96283.41;;;18.07;100.00
2397;BME280;1209;48.410;9.054;2022-08-03T03:42:58;96274.88;;;18.05;100.00
2397;BME280;1209;48.410;9.054;2022-08-03T03:45:25;96282.00;;;18.05;100.00
2397;BME280;1209;48.410;9.054;2022-08-03T03:47:50;96285.44;;;18.05;100.00
2397;BME280;1209;48.410;9.054;2022-08-03T03:50:17;96285.44;;;18.05;100.00
2397;BME280;1209;48.410;9.054;2022-08-03T03:52:43;96288.69;;;18.07;100.00
2397;BME280;1209;48.410;9.054;2022-08-03T03:55:09;96294.03;;;18.01;100.00
2397;BME280;1209;48.410;9.054;2022-08-03T03:57:34;96285.09;;;18.02;100.00
2397;BME280;1209;48.410;9.054;2022-08-03T03:59:59;96282.66;;;18.00;100.00
2397;BME280;1209;48.410;9.054;2022-08-03T04:02:25;96289.19;;;17.98;100.00
2397;BME280;1209;48.410;9.054;2022-08-03T04:04:50;96288.69;;;18.07;100.00
2397;BME280;1209;48.410;9.054;2022-08-03T04:07:45;96276.63;;;18.11;100.00
2397;BME280;1209;48.410;9.054;2022-08-03T04:10:38;96283.53;;;18.12;100.00
2397;BME280;1209;48.410;9.054;2022-08-03T04:13:44;96280.88;;;18.12;100.00
2397;BME280;1209;48.410;9.054;2022-08-03T04:16:13;96289.25;;;18.09;100.00
2397;BME280;1209;48.410;9.054;2022-08-03T04:18:43;96291.09;;;18.09;100.00
2397;BME280;1209;48.410;9.054;2022-08-03T04:21:13;96289.34;;;18.03;100.00
2397;BME280;1209;48.410;9.054;2022-08-03T04:23:42;96287.38;;;17.98;100.00
2397;BME280;1209;48.410;9.054;2022-08-03T04:26:11;96295.19;;;17.86;100.00
2397;BME280;1209;48.410;9.054;2022-08-03T04:28:43;96289.19;;;17.98;100.00
2397;BME280;1209;48.410;9.054;2022-08-03T04:31:10;96300.13;;;18.01;100.00
2397;BME280;1209;48.410;9.054;2022-08-03T04:33:37;96296.91;;;17.99;100.00
2397;BME280;1209;48.410;9.054;2022-08-03T04:36:06;96294.31;;;17.92;100.00
2397;BME280;1209;48.410;9.054;2022-08-03T04:38:36;96301.56;;;17.97;100.00
2397;BME280;1209;48.410;9.054;2022-08-03T04:41:02;96295.88;;;18.00;100.00
2397;BME280;1209;48.410;9.054;2022-08-03T04:43:31;96297.50;;;18.01;100.00
2397;BME280;1209;48.410;9.054;2022-08-03T04:45:58;96301.53;;;18.04;100.00
2397;BME280;1209;48.410;9.054;2022-08-03T04:48:24;96304.97;;;18.04;100.00
2397;BME280;1209;48.410;9.054;2022-08-03T04:50:49;96302.69;;;18.08;100.00
2397;BME280;1209;48.410;9.054;2022-08-03T04:53:15;96311.44;;;18.08;100.00
2397;BME280;1209;48.410;9.054;2022-08-03T04:55:42;96307.41;;;18.06;100.00
2397;BME280;1209;48.410;9.054;2022-08-03T04:58:07;96316.88;;;18.13;100.00
2397;BME280;1209;48.410;9.054;2022-08-03T05:00:33;96309.81;;;18.25;100.00
2397;BME280;1209;48.410;9.054;2022-08-03T05:02:58;96308.25;;;18.36;100.00
2397;BME280;1209;48.410;9.054;2022-08-03T05:05:24;96313.56;;;18.18;100.00
2397;BME280;1209;48.410;9.054;2022-08-03T05:07:49;96313.34;;;18.19;100.00
2397;BME280;1209;48.410;9.054;2022-08-03T05:10:15;96311.03;;;18.41;100.00
2397;BME280;1209;48.410;9.054;2022-08-03T05:12:41;96310.91;;;18.54;100.00
2397;BME280;1209;48.410;9.054;2022-08-03T05:15:07;96313.53;;;18.54;100.00
2397;BME280;1209;48.410;9.054;2022-08-03T05:17:32;96313.97;;;18.51;100.00
2397;BME280;1209;48.410;9.054;2022-08-03T05:19:58;96315.00;;;18.69;100.00
2397;BME280;1209;48.410;9.054;2022-08-03T05:22:24;96321.22;;;18.74;100.00
2397;BME280;1209;48.410;9.054;2022-08-03T05:24:49;96325.75;;;18.85;100.00
2397;BME280;1209;48.410;9.054;2022-08-03T05:27:14;96321.78;;;18.95;100.00
2397;BME280;1209;48.410;9.054;2022-08-03T05:29:47;96317.19;;;19.02;100.00
2397;BME280;1209;48.410;9.054;2022-08-03T05:32:14;96325.41;;;19.12;100.00
2397;BME280;1209;48.410;9.054;2022-08-03T05:34:39;96322.06;;;19.16;100.00
2397;BME280;1209;48.410;9.054;2022-08-03T05:37:05;96324.72;;;19.16;100.00
2397;BME280;1209;48.410;9.054;2022-08-03T05:39:32;96323.94;;;19.28;100.00
2397;BME280;1209;48.410;9.054;2022-08-03T05:41:57;96323.00;;;19.34;100.00
2397;BME280;1209;48.410;9.054;2022-08-03T05:44:22;96320.28;;;19.40;100.00
2397;BME280;1209;48.410;9.054;2022-08-03T05:46:49;96324.94;;;19.57;100.00
2397;BME280;1209;48.410;9.054;2022-08-03T05:49:15;96330.81;;;19.70;100.00
2397;BME280;1209;48.410;9.054;2022-08-03T05:51:40;96328.97;;;19.83;100.00
2397;BME280;1209;48.410;9.054;2022-08-03T05:54:05;96325.53;;;19.94;100.00
2397;BME280;1209;48.410;9.054;2022-08-03T05:56:31;96314.91;;;20.05;100.00
2397;BME280;1209;48.410;9.054;2022-08-03T05:58:56;96326.84;;;20.20;100.00
2397;BME280;1209;48.410;9.054;2022-08-03T06:01:21;96329.16;;;20.28;100.00
2397;BME280;1209;48.410;9.054;2022-08-03T06:03:47;96323.13;;;20.32;100.00
2397;BME280;1209;48.410;9.054;2022-08-03T06:06:13;96317.16;;;20.37;100.00
2397;BME280;1209;48.410;9.054;2022-08-03T06:08:40;96319.72;;;20.43;100.00
2397;BME280;1209;48.410;9.054;2022-08-03T06:11:06;96322.75;;;20.64;100.00
2397;BME280;1209;48.410;9.054;2022-08-03T06:13:31;96320.66;;;20.66;100.00
2397;BME280;1209;48.410;9.054;2022-08-03T06:15:56;96327.09;;;20.82;100.00
2397;BME280;1209;48.410;9.054;2022-08-03T06:18:22;96313.44;;;20.90;100.00
2397;BME280;1209;48.410;9.054;2022-08-03T06:20:49;96322.69;;;21.04;100.00
2397;BME280;1209;48.410;9.054;2022-08-03T06:23:15;96324.25;;;21.17;100.00
2397;BME280;1209;48.410;9.054;2022-08-03T06:25:41;96329.06;;;21.31;100.00
2397;BME280;1209;48.410;9.054;2022-08-03T06:28:06;96323.81;;;21.36;100.00
2397;BME280;1209;48.410;9.054;2022-08-03T06:30:32;96329.94;;;21.54;100.00
2397;BME280;1209;48.410;9.054;2022-08-03T06:32:57;96325.03;;;21.62;100.00
2397;BME280;1209;48.410;9.054;2022-08-03T06:35:23;96320.66;;;21.73;100.00
2397;BME280;1209;48.410;9.054;2022-08-03T06:37:49;96328.75;;;21.78;100.00
2397;BME280;1209;48.410;9.054;2022-08-03T06:40:17;96335.41;;;21.97;100.00
2397;BME280;1209;48.410;9.054;2022-08-03T06:42:43;96327.03;;;22.06;100.00
2397;BME280;1209;48.410;9.054;2022-08-03T06:45:08;96328.91;;;22.27;100.00
2397;BME280;1209;48.410;9.054;2022-08-03T06:47:35;96325.50;;;22.32;100.00
2397;BME280;1209;48.410;9.054;2022-08-03T06:50:01;96328.66;;;22.50;100.00
2397;BME280;1209;48.410;9.054;2022-08-03T06:52:27;96338.28;;;22.73;100.00
2397;BME280;1209;48.410;9.054;2022-08-03T06:54:52;96330.53;;;22.93;100.00
2397;BME280;1209;48.410;9.054;2022-08-03T06:57:17;96335.13;;;23.03;100.00
2397;BME280;1209;48.410;9.054;2022-08-03T06:59:43;96321.78;;;23.25;100.00
2397;BME280;1209;48.410;9.054;2022-08-03T07:02:09;96327.91;;;23.26;100.00
2397;BME280;1209;48.410;9.054;2022-08-03T07:04:34;96333.44;;;23.51;100.00
2397;BME280;1209;48.410;9.054;2022-08-03T07:07:00;96334.97;;;23.69;100.00
2397;BME280;1209;48.410;9.054;2022-08-03T07:09:25;96332.03;;;23.70;100.00
2397;BME280;1209;48.410;9.054;2022-08-03T07:11:51;96336.91;;;23.78;100.00
2397;BME280;1209;48.410;9.054;2022-08-03T07:14:16;96332.66;;;23.82;100.00
2397;BME280;1209;48.410;9.054;2022-08-03T07:16:42;96335.97;;;24.00;100.00
2397;BME280;1209;48.410;9.054;2022-08-03T07:19:07;96328.00;;;24.10;100.00
2397;BME280;1209;48.410;9.054;2022-08-03T07:21:32;96329.41;;;24.17;100.00
2397;BME280;1209;48.410;9.054;2022-08-03T07:23:58;96329.03;;;24.46;100.00
2397;BME280;1209;48.410;9.054;2022-08-03T07:26:23;96325.03;;;24.48;100.00
2397;BME280;1209;48.410;9.054;2022-08-03T07:28:48;96331.00;;;24.61;100.00
2397;BME280;1209;48.410;9.054;2022-08-03T07:31:14;96332.34;;;24.73;100.00
2397;BME280;1209;48.410;9.054;2022-08-03T07:33:39;96330.78;;;24.83;100.00
2397;BME280;1209;48.410;9.054;2022-08-03T07:36:04;96329.50;;;25.00;100.00
2397;BME280;1209;48.410;9.054;2022-08-03T07:38:30;96337.59;;;25.26;100.00
2397;BME280;1209;48.410;9.054;2022-08-03T07:40:55;96329.03;;;25.44;100.00
2397;BME280;1209;48.410;9.054;2022-08-03T07:43:21;96334.41;;;25.54;100.00
2397;BME280;1209;48.410;9.054;2022-08-03T07:45:46;96326.66;;;25.78;100.00
2397;BME280;1209;48.410;9.054;2022-08-03T07:48:12;96330.41;;;25.67;100.00
2397;BME280;1209;48.410;9.054;2022-08-03T07:50:37;96328.25;;;25.89;100.00
2397;BME280;1209;48.410;9.054;2022-08-03T07:53:02;96329.31;;;26.09;100.00
2397;BME280;1209;48.410;9.054;2022-08-03T07:55:28;96320.66;;;26.37;100.00
2397;BME280;1209;48.410;9.054;2022-08-03T08:00:25;96322.00;;;26.34;100.00
2397;BME280;1209;48.410;9.054;2022-08-03T08:02:51;96321.94;;;26.60;100.00
2397;BME280;1209;48.410;9.054;2022-08-03T08:05:16;96318.44;;;26.64;100.00
2397;BME280;1209;48.410;9.054;2022-08-03T08:07:42;96319.38;;;26.84;96.63
2397;BME280;1209;48.410;9.054;2022-08-03T08:10:08;96323.50;;;26.66;98.60
2397;BME280;1209;48.410;9.054;2022-08-03T08:12:34;96326.16;;;26.71;100.00
2397;BME280;1209;48.410;9.054;2022-08-03T08:15:00;96316.50;;;26.75;98.01
2397;BME280;1209;48.410;9.054;2022-08-03T08:17:26;96316.38;;;27.06;95.50
2397;BME280;1209;48.410;9.054;2022-08-03T08:19:51;96321.28;;;26.83;95.46
2397;BME280;1209;48.410;9.054;2022-08-03T08:22:17;96319.69;;;27.26;95.38
2397;BME280;1209;48.410;9.054;2022-08-03T08:24:43;96314.09;;;27.23;95.75
2397;BME280;1209;48.410;9.054;2022-08-03T08:27:09;96312.16;;;27.68;92.35
2397;BME280;1209;48.410;9.054;2022-08-03T08:29:37;96320.97;;;27.73;91.63
2397;BME280;1209;48.410;9.054;2022-08-03T08:32:02;96316.31;;;27.84;91.07
2397;BME280;1209;48.410;9.054;2022-08-03T08:34:28;96324.69;;;28.06;91.33
2397;BME280;1209;48.410;9.054;2022-08-03T08:36:53;96321.84;;;28.21;89.66
2397;BME280;1209;48.410;9.054;2022-08-03T08:39:18;96326.13;;;28.51;90.84
2397;BME280;1209;48.410;9.054;2022-08-03T08:41:44;96320.34;;;28.82;86.34
2397;BME280;1209;48.410;9.054;2022-08-03T08:44:09;96317.94;;;28.86;84.90
2397;BME280;1209;48.410;9.054;2022-08-03T08:46:37;96318.72;;;28.86;85.42
2397;BME280;1209;48.410;9.054;2022-08-03T08:49:04;96305.72;;;28.93;83.98
2397;BME280;1209;48.410;9.054;2022-08-03T08:51:33;96311.16;;;29.07;84.90
2397;BME280;1209;48.410;9.054;2022-08-03T08:54:02;96314.16;;;29.05;82.72
2397;BME280;1209;48.410;9.054;2022-08-03T08:56:30;96312.41;;;29.14;84.42
2397;BME280;1209;48.410;9.054;2022-08-03T08:59:00;96313.03;;;29.25;81.61
2397;BME280;1209;48.410;9.054;2022-08-03T09:01:26;96302.94;;;29.55;81.01
2397;BME280;1209;48.410;9.054;2022-08-03T09:03:52;96305.63;;;29.87;81.74
2397;BME280;1209;48.410;9.054;2022-08-03T09:06:19;96313.69;;;30.33;78.42
2397;BME280;1209;48.410;9.054;2022-08-03T09:08:45;96298.81;;;30.63;73.37
2397;BME280;1209;48.410;9.054;2022-08-03T09:11:10;96311.16;;;30.92;74.03
2397;BME280;1209;48.410;9.054;2022-08-03T09:13:36;96309.13;;;30.97;74.49
2397;BME280;1209;48.410;9.054;2022-08-03T09:16:09;96305.28;;;31.12;72.88
2397;BME280;1209;48.410;9.054;2022-08-03T09:18:36;96307.69;;;31.14;72.70
2397;BME280;1209;48.410;9.054;2022-08-03T09:23:46;96301.81;;;31.25;70.69
2397;BME280;1209;48.410;9.054;2022-08-03T09:26:15;96311.25;;;31.37;70.62
2397;BME280;1209;48.410;9.054;2022-08-03T09:28:43;96303.47;;;30.85;70.58
2397;BME280;1209;48.410;9.054;2022-08-03T09:31:09;96304.81;;;31.24;70.38
2397;BME280;1209;48.410;9.054;2022-08-03T09:33:45;96312.91;;;31.10;69.42
2397;BME280;1209;48.410;9.054;2022-08-03T09:36:32;96300.19;;;31.47;69.26
2397;BME280;1209;48.410;9.054;2022-08-03T09:39:06;96308.56;;;31.81;66.78
2397;BME280;1209;48.410;9.054;2022-08-03T09:41:32;96306.13;;;32.02;67.91
2397;BME280;1209;48.410;9.054;2022-08-03T09:43:58;96302.91;;;32.22;63.67
2397;BME280;1209;48.410;9.054;2022-08-03T09:46:23;96304.06;;;32.08;62.23
2397;BME280;1209;48.410;9.054;2022-08-03T09:48:49;96302.56;;;32.24;61.88
2397;BME280;1209;48.410;9.054;2022-08-03T09:51:14;96300.91;;;32.45;54.56
2397;BME280;1209;48.410;9.054;2022-08-03T09:53:45;96308.50;;;32.74;53.27
2397;BME280;1209;48.410;9.054;2022-08-03T09:56:10;96298.81;;;32.82;52.92
2397;BME280;1209;48.410;9.054;2022-08-03T09:58:45;96298.66;;;32.96;51.84
2397;BME280;1209;48.410;9.054;2022-08-03T10:01:15;96297.59;;;33.14;51.12
2397;BME280;1209;48.410;9.054;2022-08-03T10:03:40;96294.88;;;33.23;51.78
2397;BME280;1209;48.410;9.054;2022-08-03T10:06:16;96302.16;;;32.96;51.66
2397;BME280;1209;48.410;9.054;2022-08-03T10:08:44;96295.03;;;33.52;50.18
2397;BME280;1209;48.410;9.054;2022-08-03T10:11:09;96291.88;;;34.14;48.16
2397;BME280;1209;48.410;9.054;2022-08-03T10:13:35;96282.38;;;33.91;47.51
2397;BME280;1209;48.410;9.054;2022-08-03T10:16:01;96291.81;;;33.85;47.92
2397;BME280;1209;48.410;9.054;2022-08-03T10:18:29;96287.34;;;33.80;48.19
2397;BME280;1209;48.410;9.054;2022-08-03T10:20:58;96286.69;;;33.92;48.72
2397;BME280;1209;48.410;9.054;2022-08-03T10:23:27;96280.34;;;33.70;48.83
2397;BME280;1209;48.410;9.054;2022-08-03T10:25:57;96279.44;;;33.32;50.46
2397;BME280;1209;48.410;9.054;2022-08-03T10:28:25;96271.44;;;33.70;48.62
2397;BME280;1209;48.410;9.054;2022-08-03T10:30:55;96271.53;;;33.91;50.83
2397;BME280;1209;48.410;9.054;2022-08-03T10:33:26;96276.16;;;33.90;51.20
2397;BME280;1209;48.410;9.054;2022-08-03T10:35:55;96271.81;;;34.45;49.78
2397;BME280;1209;48.410;9.054;2022-08-03T10:38:28;96268.47;;;34.09;54.13
2397;BME280;1209;48.410;9.054;2022-08-03T10:40:54;96263.78;;;33.55;52.61
2397;BME280;1209;48.410;9.054;2022-08-03T10:43:21;96270.59;;;34.33;49.89
2397;BME280;1209;48.410;9.054;2022-08-03T10:45:50;96275.84;;;34.38;48.97
2397;BME280;1209;48.410;9.054;2022-08-03T10:48:17;96273.19;;;34.21;48.66
2397;BME280;1209;48.410;9.054;2022-08-03T10:50:43;96273.75;;;34.06;47.70
2397;BME280;1209;48.410;9.054;2022-08-03T10:53:09;96268.03;;;33.90;49.29
2397;BME280;1209;48.410;9.054;2022-08-03T10:55:44;96265.72;;;34.77;46.55
2397;BME280;1209;48.410;9.054;2022-08-03T11:01:03;96260.63;;;34.46;48.11
2397;BME280;1209;48.410;9.054;2022-08-03T11:03:29;96260.84;;;34.32;47.65
2397;BME280;1209;48.410;9.054;2022-08-03T11:06:14;96257.09;;;33.69;48.41
2397;BME280;1209;48.410;9.054;2022-08-03T11:08:41;96262.97;;;33.71;47.36
2397;BME280;1209;48.410;9.054;2022-08-03T11:14:00;96257.53;;;34.86;47.73
2397;BME280;1209;48.410;9.054;2022-08-03T11:16:28;96247.38;;;35.03;44.95
2397;BME280;1209;48.410;9.054;2022-08-03T11:19:07;96253.75;;;34.49;46.16
2397;BME280;1209;48.410;9.054;2022-08-03T11:27:20;96257.16;;;35.38;43.42
2397;BME280;1209;48.410;9.054;2022-08-03T11:43:01;96244.53;;;36.11;43.65
2397;BME280;1209;48.410;9.054;2022-08-03T11:45:26;96241.16;;;36.14;42.64
2397;BME280;1209;48.410;9.054;2022-08-03T11:47:53;96248.44;;;36.47;42.80
2397;BME280;1209;48.410;9.054;2022-08-03T11:50:20;96243.88;;;36.02;42.38
2397;BME280;1209;48.410;9.054;2022-08-03T11:52:47;96247.84;;;36.05;43.95
2397;BME280;1209;48.410;9.054;2022-08-03T11:55:15;96239.13;;;36.36;42.24
2397;BME280;1209;48.410;9.054;2022-08-03T11:57:41;96234.13;;;36.13;42.05
2397;BME280;1209;48.410;9.054;2022-08-03T12:00:23;96233.69;;;35.66;44.21
2397;BME280;1209;48.410;9.054;2022-08-03T12:03:10;96231.75;;;36.48;42.72
2397;BME280;1209;48.410;9.054;2022-08-03T12:05:46;96228.69;;;36.13;41.35
2397;BME280;1209;48.410;9.054;2022-08-03T12:08:17;96228.66;;;35.89;41.71
2397;BME280;1209;48.410;9.054;2022-08-03T12:10:48;96226.16;;;35.84;42.53
2397;BME280;1209;48.410;9.054;2022-08-03T12:13:13;96231.19;;;36.31;41.69
2397;BME280;1209;48.410;9.054;2022-08-03T12:15:39;96228.91;;;36.20;42.79
2397;BME280;1209;48.410;9.054;2022-08-03T12:18:16;96228.13;;;36.56;41.99
2397;BME280;1209;48.410;9.054;2022-08-03T12:20:42;96227.03;;;35.76;42.75
2397;BME280;1209;48.410;9.054;2022-08-03T12:23:08;96230.91;;;36.84;41.00
2397;BME280;1209;48.410;9.054;2022-08-03T12:25:35;96225.47;;;37.25;40.13
2397;BME280;1209;48.410;9.054;2022-08-03T12:28:10;96217.19;;;36.81;40.59
2397;BME280;1209;48.410;9.054;2022-08-03T12:30:38;96219.13;;;36.68;39.81
2397;BME280;1209;48.410;9.054;2022-08-03T12:33:17;96211.19;;;35.90;40.68
2397;BME280;1209;48.410;9.054;2022-08-03T12:35:45;96212.16;;;36.43;42.21
2397;BME280;1209;48.410;9.054;2022-08-03T12:38:11;96213.47;;;36.61;40.00
2397;BME280;1209;48.410;9.054;2022-08-03T12:40:38;96210.75;;;37.41;39.19
2397;BME280;1209;48.410;9.054;2022-08-03T12:43:12;96206.81;;;37.39;38.36
2397;BME280;1209;48.410;9.054;2022-08-03T12:45:39;96204.66;;;37.32;40.32
2397;BME280;1209;48.410;9.054;2022-08-03T12:48:07;96204.88;;;37.55;40.00
2397;BME280;1209;48.410;9.054;2022-08-03T12:50:34;96205.75;;;36.26;41.71
2397;BME280;1209;48.410;9.054;2022-08-03T12:53:02;96209.16;;;37.12;40.84
2397;BME280;1209;48.410;9.054;2022-08-03T12:55:31;96201.53;;;37.46;39.95
2397;BME280;1209;48.410;9.054;2022-08-03T12:58:00;96208.34;;;37.84;38.85
2397;BME280;1209;48.410;9.054;2022-08-03T13:00:26;96209.31;;;38.23;38.04
2397;BME280;1209;48.410;9.054;2022-08-03T13:02:59;96205.03;;;37.90;40.07
2397;BME280;1209;48.410;9.054;2022-08-03T13:05:26;96203.44;;;38.36;37.26
2397;BME280;1209;48.410;9.054;2022-08-03T13:07:51;96199.16;;;37.44;37.55
2397;BME280;1209;48.410;9.054;2022-08-03T13:10:30;96207.25;;;38.51;37.08
2397;BME280;1209;48.410;9.054;2022-08-03T13:12:57;96194.94;;;37.47;39.12
2397;BME280;1209;48.410;9.054;2022-08-03T13:15:27;96205.38;;;37.89;37.44
2397;BME280;1209;48.410;9.054;2022-08-03T13:17:54;96205.63;;;38.31;37.83
2397;BME280;1209;48.410;9.054;2022-08-03T13:20:20;96203.94;;;38.77;37.69
2397;BME280;1209;48.410;9.054;2022-08-03T13:22:46;96198.22;;;37.84;38.31
2397;BME280;1209;48.410;9.054;2022-08-03T13:25:12;96200.50;;;38.29;37.81
2397;BME280;1209;48.410;9.054;2022-08-03T13:27:38;96201.50;;;38.21;37.41
2397;BME280;1209;48.410;9.054;2022-08-03T13:30:03;96193.34;;;37.46;38.80
2397;BME280;1209;48.410;9.054;2022-08-03T13:32:29;96182.44;;;36.38;39.96
2397;BME280;1209;48.410;9.054;2022-08-03T13:34:54;96192.34;;;37.82;38.42
2397;BME280;1209;48.410;9.054;2022-08-03T13:37:20;96186.56;;;37.40;40.22
2397;BME280;1209;48.410;9.054;2022-08-03T13:39:45;96187.88;;;37.90;38.68
2397;BME280;1209;48.410;9.054;2022-08-03T13:42:11;96184.41;;;37.77;38.42
2397;BME280;1209;48.410;9.054;2022-08-03T13:44:36;96182.38;;;37.58;38.95
2397;BME280;1209;48.410;9.054;2022-08-03T13:47:03;96179.38;;;37.63;39.49
2397;BME280;1209;48.410;9.054;2022-08-03T13:49:28;96174.00;;;37.23;39.70
2397;BME280;1209;48.410;9.054;2022-08-03T13:51:54;96175.75;;;36.75;39.19
2397;BME280;1209;48.410;9.054;2022-08-03T13:54:20;96167.47;;;36.44;39.61